Time;durP1;ratioP1;P1;durP2;ratioP2;P2;SDS_P1;SDS_P2;PMS_P1;PMS_P2;Temp;Humidity;BMP_temperature;BMP_pressure;BME280_temperature;BME280_humidity;BME280_pressure;Samples;Min_cycle;Max_cycle;Signal;HPM_P1;HPM_P2
2024/01/20 00:00:12;;;;;;;0.88;0.88;;;;;;;1.42;100.00;62146.56;5106869;28;20266;-75
2024/01/20 00:02:40;;;;;;;0.80;0.80;;;;;;;1.47;100.00;62149.19;5113948;28;20310;-77
2024/01/20 00:05:08;;;;;;;1.02;0.70;;;;;;;1.41;100.00;62148.06;5102489;28;20223;-76
2024/01/20 00:07:35;;;;;;;1.10;1.10;;;;;;;1.32;100.00;62133.81;5108125;28;20527;-76
2024/01/20 00:10:02;;;;;;;0.85;0.68;;;;;;;1.32;100.00;62133.81;5106491;28;20231;-75
2024/01/20 00:12:30;;;;;;;0.82;0.82;;;;;;;1.26;100.00;62129.66;5106614;28;20237;-74
2024/01/20 00:14:57;;;;;;;1.20;1.20;;;;;;;1.08;100.00;62114.19;5105583;28;20447;-74
2024/01/20 00:17:24;;;;;;;1.20;1.20;;;;;;;0.99;100.00;62102.97;5106893;28;20212;-75
2024/01/20 00:19:52;;;;;;;1.02;1.02;;;;;;;1.04;100.00;62107.59;5088719;28;20273;-75
2024/01/20 00:22:20;;;;;;;1.42;1.30;;;;;;;1.09;100.00;62112.72;5105066;28;20203;-77
2024/01/20 00:24:47;;;;;;;0.52;0.52;;;;;;;1.09;100.00;62113.22;5107186;28;20226;-75
2024/01/20 00:27:14;;;;;;;1.27;1.17;;;;;;;1.06;100.00;62105.16;5112440;28;20195;-76
2024/01/20 00:29:40;;;;;;;0.80;0.80;;;;;;;1.13;100.00;62114.84;5109729;28;20228;-76
2024/01/20 00:32:07;;;;;;;1.17;1.17;;;;;;;1.01;100.00;62107.53;5108389;28;20374;-74
2024/01/20 00:34:34;;;;;;;1.10;0.98;;;;;;;0.97;100.00;62097.91;5104794;28;20278;-76
2024/01/20 00:37:03;;;;;;;1.23;1.10;;;;;;;0.98;100.00;62101.94;5103168;28;20245;-77
2024/01/20 00:39:31;;;;;;;1.23;1.23;;;;;;;1.00;100.00;62106.00;5106150;28;20555;-76
2024/01/20 00:41:57;;;;;;;0.85;0.85;;;;;;;0.91;100.00;62096.75;5106458;28;20246;-77
2024/01/20 00:44:24;;;;;;;0.93;0.93;;;;;;;0.92;100.00;62095.78;5096701;28;20232;-76
2024/01/20 00:46:51;;;;;;;1.30;1.20;;;;;;;0.87;100.00;62092.66;5102504;28;20227;-76
2024/01/20 00:49:18;;;;;;;0.90;0.90;;;;;;;0.76;100.00;62079.38;5095668;28;20242;-76
2024/01/20 00:51:45;;;;;;;1.38;1.17;;;;;;;0.70;100.00;62072.72;5104853;28;20233;-76
2024/01/20 00:54:14;;;;;;;1.25;0.88;;;;;;;0.73;100.00;62076.31;5108096;28;20184;-76
2024/01/20 00:56:40;;;;;;;1.10;1.08;;;;;;;0.68;100.00;62068.16;5112716;28;20512;-76
2024/01/20 00:59:07;;;;;;;0.82;0.82;;;;;;;0.62;100.00;62064.53;5111813;28;20231;-77
2024/01/20 01:01:35;;;;;;;0.73;0.73;;;;;;;0.61;100.00;62064.00;5104441;28;20235;-75
2024/01/20 01:04:02;;;;;;;1.20;1.10;;;;;;;0.61;100.00;62060.97;5106834;28;20203;-78
2024/01/20 01:06:29;;;;;;;0.70;0.70;;;;;;;0.61;100.00;62066.00;5107736;28;20203;-76
2024/01/20 01:08:57;;;;;;;0.88;0.88;;;;;;;0.56;100.00;62053.34;5107522;28;20211;-77
2024/01/20 01:11:25;;;;;;;0.90;0.90;;;;;;;0.54;100.00;62056.31;5105590;28;20236;-76
2024/01/20 01:13:52;;;;;;;0.90;0.90;;;;;;;0.53;100.00;62057.78;5108702;28;20476;-77
2024/01/20 01:16:19;;;;;;;1.45;1.35;;;;;;;0.44;100.00;62044.06;5106330;28;20525;-76
2024/01/20 01:18:46;;;;;;;2.25;0.82;;;;;;;0.40;100.00;62047.47;5104541;28;20258;-77
2024/01/20 01:21:13;;;;;;;1.92;1.23;;;;;;;0.34;100.00;62038.84;5111337;28;20220;-76
2024/01/20 01:23:40;;;;;;;0.80;0.70;;;;;;;0.37;100.00;62041.38;5108545;28;20204;-77
2024/01/20 01:26:07;;;;;;;1.05;1.05;;;;;;;0.45;100.00;62042.59;5106912;28;20238;-76
2024/01/20 01:28:35;;;;;;;0.70;0.70;;;;;;;0.48;100.00;62052.66;5105295;28;20250;-77
2024/01/20 01:31:02;;;;;;;1.25;1.15;;;;;;;0.24;100.00;62030.56;5104824;28;20258;-74
2024/01/20 01:33:29;;;;;;;0.80;0.80;;;;;;;0.31;100.00;62030.72;5103203;28;20196;-76
2024/01/20 01:35:56;;;;;;;0.82;0.82;;;;;;;0.35;100.00;62034.31;5105108;28;20220;-76
2024/01/20 01:38:23;;;;;;;1.45;1.08;;;;;;;0.27;100.00;62029.16;5104893;28;20211;-77
2024/01/20 01:40:50;;;;;;;1.13;0.77;;;;;;;0.18;100.00;62017.41;5106035;28;20247;-77
2024/01/20 01:43:17;;;;;;;1.13;1.13;;;;;;;0.24;100.00;62025.56;5091541;28;20205;-76
2024/01/20 01:45:45;;;;;;;1.02;0.93;;;;;;;0.18;100.00;62019.91;5096566;28;20227;-74
2024/01/20 01:48:12;;;;;;;1.00;1.00;;;;;;;0.09;100.00;62010.19;5106269;28;20214;-74
2024/01/20 01:50:39;;;;;;;1.20;1.10;;;;;;;0.03;100.00;61999.03;5107773;28;20246;-77
2024/01/20 01:53:06;;;;;;;0.60;0.60;;;;;;;-0.03;100.00;62003.91;5104795;28;20208;-76
2024/01/20 01:55:33;;;;;;;1.10;1.10;;;;;;;-0.03;100.00;62003.41;5102824;28;20275;-75
2024/01/20 01:58:00;;;;;;;1.17;1.17;;;;;;;-0.08;100.00;61995.78;5104836;28;20204;-77
2024/01/20 02:00:27;;;;;;;1.85;1.42;;;;;;;-0.10;100.00;61988.72;5105356;28;20268;-77
2024/01/20 02:02:56;;;;;;;1.52;1.42;;;;;;;-0.07;100.00;61994.31;5107142;28;20231;-76
2024/01/20 02:05:23;;;;;;;1.50;1.40;;;;;;;-0.23;100.00;61978.44;5104559;28;20220;-76
2024/01/20 02:07:50;;;;;;;1.25;1.25;;;;;;;-0.23;100.00;61977.91;5111438;28;20207;-76
2024/01/20 02:10:17;;;;;;;1.08;1.08;;;;;;;-0.28;100.00;61970.28;5103601;28;20559;-76
2024/01/20 02:12:45;;;;;;;1.55;1.42;;;;;;;-0.37;100.00;61961.06;5103024;28;20272;-76
2024/01/20 02:15:12;;;;;;;1.30;1.30;;;;;;;-0.39;100.00;61961.50;5106917;28;20224;-77
2024/01/20 02:17:49;;;;;;;1.30;1.15;;;;;;;-0.45;100.00;61955.88;5104664;28;20234;-75
2024/01/20 02:20:19;;;;;;;0.80;0.80;;;;;;;-0.48;100.00;61952.81;5096678;28;20273;-76
2024/01/20 02:22:47;;;;;;;1.20;0.95;;;;;;;-0.54;100.00;61944.16;5103841;28;20407;-76
2024/01/20 02:25:14;;;;;;;0.70;0.70;;;;;;;-0.52;100.00;61948.22;5105120;28;20223;-75
2024/01/20 02:27:40;;;;;;;2.47;1.10;;;;;;;-0.46;100.00;61959.34;5106520;28;20431;-76
2024/01/20 02:30:08;;;;;;;1.15;1.15;;;;;;;-0.49;100.00;61951.28;5110067;28;20212;-74
2024/01/20 02:32:36;;;;;;;0.75;0.75;;;;;;;-0.50;100.00;61947.75;5102772;28;20308;-74
2024/01/20 02:35:03;;;;;;;1.15;0.98;;;;;;;-0.62;100.00;61938.47;5105043;28;20389;-76
2024/01/20 02:37:30;;;;;;;1.35;1.25;;;;;;;-0.63;100.00;61934.94;5104417;28;20207;-76
2024/01/20 02:39:59;;;;;;;2.03;0.90;;;;;;;-0.69;100.00;61930.78;5103080;28;20251;-77
2024/01/20 02:42:25;;;;;;;0.90;0.90;;;;;;;-0.82;100.00;61915.50;5102361;28;20244;-76
2024/01/20 02:44:52;;;;;;;1.48;1.38;;;;;;;-0.75;100.00;61919.66;5105124;28;20234;-76
2024/01/20 02:47:20;;;;;;;1.80;1.70;;;;;;;-0.74;100.00;61926.19;5094078;28;20200;-76
2024/01/20 02:49:47;;;;;;;1.65;1.45;;;;;;;-0.79;100.00;61923.56;5102794;28;20216;-77
2024/01/20 02:52:14;;;;;;;1.08;1.08;;;;;;;-0.83;100.00;61916.47;5106744;28;20496;-76
2024/01/20 02:54:41;;;;;;;1.65;1.55;;;;;;;-0.72;100.00;61930.72;5109113;28;20231;-78
2024/01/20 02:57:09;;;;;;;1.45;1.42;;;;;;;-0.71;100.00;61926.75;5103860;28;20360;-77
2024/01/20 02:59:36;;;;;;;1.10;1.10;;;;;;;-0.73;100.00;61924.19;5103480;28;20232;-77
2024/01/20 03:02:04;;;;;;;1.00;1.00;;;;;;;-0.73;100.00;61926.69;5106192;28;20358;-77
2024/01/20 03:04:31;;;;;;;0.90;0.90;;;;;;;-0.75;100.00;61925.16;5100918;28;20221;-76
2024/01/20 03:06:58;;;;;;;1.40;1.40;;;;;;;-0.77;100.00;61925.59;5093611;28;20234;-77
2024/01/20 03:09:25;;;;;;;1.25;1.25;;;;;;;-0.84;100.00;61913.44;5108352;28;20664;-77
2024/01/20 03:11:51;;;;;;;1.33;1.23;;;;;;;-0.76;100.00;61926.13;5107862;28;20196;-78
2024/01/20 03:14:20;;;;;;;1.23;1.23;;;;;;;-0.78;100.00;61922.09;5110096;28;20227;-76
2024/01/20 03:16:47;;;;;;;1.30;1.30;;;;;;;-0.63;100.00;61937.44;5114592;28;20544;-78
2024/01/20 03:19:13;;;;;;;1.33;1.30;;;;;;;-0.69;100.00;61930.78;5101237;28;20196;-77
2024/01/20 03:21:40;;;;;;;0.93;0.93;;;;;;;-0.79;100.00;61918.56;5102755;28;20215;-77
2024/01/20 03:24:07;;;;;;;1.63;1.52;;;;;;;-0.86;100.00;61908.91;5110681;28;20261;-79
2024/01/20 03:26:34;;;;;;;1.20;1.10;;;;;;;-1.01;100.00;61898.53;5106955;28;20522;-77
2024/01/20 03:29:01;;;;;;;1.02;1.02;;;;;;;-0.98;100.00;61903.59;5108477;28;20208;-76
2024/01/20 03:31:30;;;;;;;1.08;1.08;;;;;;;-1.00;100.00;61896.56;5108489;28;20225;-77
2024/01/20 03:33:57;;;;;;;1.17;1.17;;;;;;;-1.00;100.00;61897.06;5111691;28;20214;-77
2024/01/20 03:36:24;;;;;;;0.80;0.80;;;;;;;-1.22;100.00;61872.56;5103708;28;20207;-77
2024/01/20 03:38:51;;;;;;;0.98;0.98;;;;;;;-1.28;100.00;61868.91;5111649;28;20212;-76
2024/01/20 03:41:18;;;;;;;1.20;1.13;;;;;;;-1.29;100.00;61869.88;5107886;28;20240;-79
2024/01/20 03:43:45;;;;;;;1.40;1.30;;;;;;;-1.38;100.00;61863.19;5107301;28;20282;-76
2024/01/20 03:46:12;;;;;;;0.93;0.93;;;;;;;-1.42;100.00;61859.59;5108030;28;20219;-77
2024/01/20 03:48:41;;;;;;;1.10;0.90;;;;;;;-1.37;100.00;61861.69;5108399;28;20210;-75
2024/01/20 03:51:08;;;;;;;0.70;0.70;;;;;;;-1.38;100.00;61863.19;5107208;28;20395;-75
2024/01/20 03:53:35;;;;;;;1.25;1.15;;;;;;;-1.48;100.00;61850.44;5108606;28;20509;-77
2024/01/20 03:56:02;;;;;;;0.98;0.98;;;;;;;-1.52;100.00;61846.34;5112056;28;20219;-77
2024/01/20 03:58:29;;;;;;;0.85;0.85;;;;;;;-1.68;100.00;61830.50;5114106;28;20196;-76
2024/01/20 04:00:56;;;;;;;0.60;0.60;;;;;;;-1.57;100.00;61841.22;5108590;28;20323;-77
2024/01/20 04:03:22;;;;;;;1.02;0.90;;;;;;;-1.55;100.00;61846.28;5107604;28;20200;-76
2024/01/20 04:05:51;;;;;;;1.10;1.10;;;;;;;-1.66;100.00;61830.03;5108511;28;20269;-77
2024/01/20 04:08:18;;;;;;;1.42;1.27;;;;;;;-1.76;100.00;61821.78;5106858;28;20438;-76
2024/01/20 04:10:45;;;;;;;0.63;0.63;;;;;;;-1.87;100.00;61808.03;5109412;28;20236;-76
2024/01/20 04:13:12;;;;;;;0.70;0.70;;;;;;;-1.86;100.00;61819.03;5106660;28;20400;-78
2024/01/20 04:15:39;;;;;;;1.08;1.08;;;;;;;-1.71;100.00;61824.91;5110283;28;20273;-78
2024/01/20 04:18:06;;;;;;;1.75;1.30;;;;;;;-1.64;100.00;61834.06;5109133;28;20393;-77
2024/01/20 04:20:33;;;;;;;1.13;1.08;;;;;;;-1.64;100.00;61836.56;5102430;28;20958;-77
2024/01/20 04:23:02;;;;;;;0.80;0.80;;;;;;;-1.59;100.00;61839.19;5112489;28;20496;-78
2024/01/20 04:25:29;;;;;;;0.85;0.85;;;;;;;-1.61;100.00;61837.66;5109429;28;20235;-78
2024/01/20 04:27:56;;;;;;;0.80;0.80;;;;;;;-1.65;100.00;61830.53;5107511;28;20199;-77
2024/01/20 04:30:23;;;;;;;0.85;0.85;;;;;;;-1.67;100.00;61831.50;5108477;28;20228;-77
2024/01/20 04:32:50;;;;;;;1.45;1.35;;;;;;;-1.71;100.00;61824.41;5109968;28;20196;-77
2024/01/20 04:35:17;;;;;;;0.93;0.93;;;;;;;-1.70;100.00;61825.94;5107675;28;20397;-79
2024/01/20 04:37:44;;;;;;;0.60;0.60;;;;;;;-1.74;100.00;61821.84;5108137;28;20200;-77
2024/01/20 04:40:12;;;;;;;0.93;0.93;;;;;;;-1.82;100.00;61813.66;5107047;28;20249;-78
2024/01/20 04:42:39;;;;;;;1.20;1.20;;;;;;;-1.66;100.00;61830.03;5106449;28;20230;-77
2024/01/20 04:45:07;;;;;;;0.68;0.68;;;;;;;-1.65;100.00;61828.03;5108559;28;20230;-79
2024/01/20 04:47:34;;;;;;;0.70;0.70;;;;;;;-1.69;100.00;61826.97;5108815;28;20196;-78
2024/01/20 04:50:01;;;;;;;0.88;0.88;;;;;;;-1.79;100.00;61819.22;5105116;28;20220;-76
2024/01/20 04:52:28;;;;;;;0.98;0.98;;;;;;;-1.60;100.00;61838.16;5107093;28;20253;-75
2024/01/20 04:54:55;;;;;;;0.82;0.82;;;;;;;-1.62;100.00;61841.59;5106118;28;20224;-78
2024/01/20 04:57:24;;;;;;;0.93;0.90;;;;;;;-1.65;100.00;61830.53;5106959;28;20212;-77
2024/01/20 04:59:51;;;;;;;1.13;0.93;;;;;;;-1.61;100.00;61837.13;5104803;28;20564;-78
2024/01/20 05:02:18;;;;;;;0.60;0.60;;;;;;;-1.53;100.00;61843.34;5106470;28;20417;-77
2024/01/20 05:04:46;;;;;;;0.80;0.80;;;;;;;-1.62;100.00;61836.09;5110855;28;20224;-78
2024/01/20 05:07:13;;;;;;;1.10;1.00;;;;;;;-1.67;100.00;61831.50;5104442;28;20280;-79
2024/01/20 05:09:40;;;;;;;0.90;0.90;;;;;;;-1.59;100.00;61837.19;5106259;28;20247;-78
2024/01/20 05:12:07;;;;;;;1.00;1.00;;;;;;;-1.64;100.00;61837.06;5106783;28;20212;-78
2024/01/20 05:14:36;;;;;;;0.65;0.65;;;;;;;-1.58;100.00;61838.22;5108046;28;20253;-77
2024/01/20 05:17:03;;;;;;;0.95;0.95;;;;;;;-1.58;100.00;61837.69;5106450;28;20207;-76
2024/01/20 05:19:31;;;;;;;1.25;1.23;;;;;;;-1.70;100.00;61823.44;5101854;28;20241;-78
2024/01/20 05:21:57;;;;;;;1.42;1.33;;;;;;;-1.79;100.00;61816.22;5094740;28;20549;-79
2024/01/20 05:24:24;;;;;;;0.85;0.85;;;;;;;-1.84;100.00;61806.63;5113516;28;20288;-77
2024/01/20 05:26:51;;;;;;;1.02;1.02;;;;;;;-1.80;100.00;61820.19;5105454;28;20208;-78
2024/01/20 05:29:18;;;;;;;0.85;0.85;;;;;;;-1.86;100.00;61804.06;5106037;28;20324;-77
2024/01/20 05:31:47;;;;;;;1.35;1.25;;;;;;;-1.81;100.00;61817.19;5107406;28;20207;-76
2024/01/20 05:34:13;;;;;;;1.17;1.17;;;;;;;-1.86;100.00;61807.06;5109551;28;20245;-77
2024/01/20 05:36:40;;;;;;;1.13;1.10;;;;;;;-1.90;100.00;61804.97;5102788;28;20206;-78
2024/01/20 05:39:07;;;;;;;1.75;1.23;;;;;;;-1.86;100.00;61809.56;5107063;28;20203;-80
2024/01/20 05:41:34;;;;;;;1.80;1.70;;;;;;;-1.79;100.00;61816.72;5106337;28;20230;-77
2024/01/20 05:44:02;;;;;;;1.55;1.45;;;;;;;-1.76;100.00;61822.28;5108752;28;20271;-77
2024/01/20 05:46:29;;;;;;;1.58;1.48;;;;;;;-1.75;100.00;61822.81;5102257;28;20254;-77
2024/01/20 05:48:57;;;;;;;3.70;1.60;;;;;;;-1.73;100.00;61822.38;5093086;28;20247;-77
2024/01/20 05:51:24;;;;;;;1.50;1.38;;;;;;;-1.86;100.00;61809.06;5106541;28;20387;-76
2024/01/20 05:53:51;;;;;;;4.03;1.60;;;;;;;-1.90;100.00;61812.97;5106352;28;20195;-76
2024/01/20 05:56:20;;;;;;;1.65;1.52;;;;;;;-1.91;100.00;61803.94;5102129;28;20224;-78
2024/01/20 05:58:47;;;;;;;1.38;1.35;;;;;;;-1.91;100.00;61804.47;5107150;28;20242;-76
2024/01/20 06:01:14;;;;;;;1.55;1.55;;;;;;;-1.94;100.00;61803.38;5106268;28;20520;-78
2024/01/20 06:03:41;;;;;;;1.55;1.48;;;;;;;-2.04;100.00;61796.16;5105749;28;20203;-77
2024/01/20 06:06:10;;;;;;;1.90;1.80;;;;;;;-1.96;100.00;61798.84;5107909;28;20230;-78
2024/01/20 06:08:37;;;;;;;1.50;1.40;;;;;;;-1.96;100.00;61796.34;5108553;28;20520;-76
2024/01/20 06:11:04;;;;;;;1.55;1.45;;;;;;;-2.06;100.00;61793.59;5105155;28;20255;-77
2024/01/20 06:13:31;;;;;;;1.67;1.58;;;;;;;-2.07;100.00;61792.59;5108413;28;20263;-76
2024/01/20 06:15:58;;;;;;;1.15;1.05;;;;;;;-2.03;100.00;61794.69;5104989;28;20227;-76
2024/01/20 06:18:26;;;;;;;2.20;1.52;;;;;;;-2.05;100.00;61789.66;5107291;28;20203;-78
2024/01/20 06:20:54;;;;;;;3.08;1.58;;;;;;;-2.11;100.00;61786.50;5093606;28;20254;-76
2024/01/20 06:23:22;;;;;;;3.25;1.98;;;;;;;-2.00;100.00;61795.25;5101250;28;20267;-77
2024/01/20 06:25:49;;;;;;;1.23;1.15;;;;;;;-2.00;100.00;61797.25;5100190;28;20208;-79
2024/01/20 06:28:17;;;;;;;1.52;1.42;;;;;;;-1.94;100.00;61803.88;5106905;28;20215;-78
2024/01/20 06:30:46;;;;;;;3.95;1.75;;;;;;;-1.99;100.00;61795.78;5107118;28;20287;-79
2024/01/20 06:33:13;;;;;;;1.35;1.25;;;;;;;-1.95;100.00;61797.88;5108134;28;20227;-78
2024/01/20 06:35:40;;;;;;;1.27;1.17;;;;;;;-2.09;100.00;61786.06;5106571;28;20282;-78
2024/01/20 06:38:07;;;;;;;1.92;1.83;;;;;;;-2.06;100.00;61791.63;5103630;28;20256;-77
2024/01/20 06:40:36;;;;;;;1.88;1.77;;;;;;;-1.96;100.00;61796.34;5097063;28;20231;-79
2024/01/20 06:43:03;;;;;;;4.78;2.45;;;;;;;-1.92;100.00;61800.44;5107872;28;20192;-78
2024/01/20 06:45:33;;;;;;;1.52;1.42;;;;;;;-1.91;100.00;61804.47;5106046;28;20229;-76
2024/01/20 06:48:01;;;;;;;3.28;1.80;;;;;;;-1.92;100.00;61805.41;5102809;28;20215;-76
2024/01/20 06:50:28;;;;;;;1.73;1.63;;;;;;;-1.97;100.00;61802.81;5104997;28;20228;-77
2024/01/20 06:52:54;;;;;;;1.75;1.65;;;;;;;-2.07;100.00;61790.09;5094876;28;20216;-77
2024/01/20 06:55:22;;;;;;;1.63;1.52;;;;;;;-2.10;100.00;61784.50;5103767;28;20216;-76
2024/01/20 06:57:50;;;;;;;2.33;2.13;;;;;;;-2.20;100.00;61777.31;5097179;28;20196;-79
2024/01/20 07:00:17;;;;;;;1.63;1.52;;;;;;;-2.11;100.00;61783.50;5101704;28;20260;-77
2024/01/20 07:02:45;;;;;;;4.10;1.80;;;;;;;-2.03;100.00;61792.19;5103246;28;20238;-85
2024/01/20 07:05:12;;;;;;;2.13;1.95;;;;;;;-1.99;100.00;61803.25;5105261;28;20201;-83
2024/01/20 07:07:40;;;;;;;1.88;1.77;;;;;;;-1.97;100.00;61800.81;5106718;28;20263;-81
2024/01/20 07:10:08;;;;;;;3.65;2.53;;;;;;;-1.94;100.00;61798.38;5112863;28;20238;-81
2024/01/20 07:12:36;;;;;;;2.25;2.13;;;;;;;-1.93;100.00;61806.91;5112964;28;20213;-82
2024/01/20 07:15:05;;;;;;;2.33;2.13;;;;;;;-1.90;100.00;61808.00;5109041;28;20219;-84
2024/01/20 07:17:32;;;;;;;1.80;1.63;;;;;;;-1.85;100.00;61810.59;5102909;28;20192;-83
2024/01/20 07:20:00;;;;;;;2.75;1.63;;;;;;;-1.88;100.00;61807.03;5108645;28;20220;-81
2024/01/20 07:22:27;;;;;;;3.20;2.38;;;;;;;-1.83;100.00;61815.13;5103595;28;20227;-83
2024/01/20 07:24:54;;;;;;;1.80;1.70;;;;;;;-1.88;100.00;61807.03;5103755;28;20232;-83
2024/01/20 07:27:22;;;;;;;2.00;1.90;;;;;;;-1.78;100.00;61822.75;5110481;28;20200;-81
2024/01/20 07:29:49;;;;;;;2.00;1.90;;;;;;;-1.68;100.00;61829.97;5109664;28;20245;-82
2024/01/20 07:32:17;;;;;;;1.88;1.77;;;;;;;-1.75;100.00;61818.34;5101001;28;20196;-78
2024/01/20 07:34:44;;;;;;;1.35;1.23;;;;;;;-1.88;100.00;61809.53;5098598;28;20216;-77
2024/01/20 07:37:11;;;;;;;1.60;1.42;;;;;;;-1.80;100.00;61813.22;5103852;28;20205;-78
2024/01/20 07:39:38;;;;;;;1.02;0.98;;;;;;;-1.84;100.00;61813.59;5100228;28;20304;-77
2024/01/20 07:42:05;;;;;;;1.67;1.58;;;;;;;-2.06;100.00;61789.13;5105136;28;20254;-77
2024/01/20 07:44:32;;;;;;;2.00;1.70;;;;;;;-1.85;100.00;61813.09;5099789;28;20211;-77
2024/01/20 07:46:59;;;;;;;1.88;1.77;;;;;;;-1.85;100.00;61813.09;5105565;28;20196;-78
2024/01/20 07:49:28;;;;;;;2.03;1.92;;;;;;;-1.84;100.00;61811.09;5103421;28;20221;-77
2024/01/20 07:51:55;;;;;;;1.98;1.88;;;;;;;-1.88;100.00;61815.00;5098179;28;20204;-78
2024/01/20 07:54:22;;;;;;;1.02;1.02;;;;;;;-1.92;100.00;61805.94;5094191;28;20594;-77
2024/01/20 07:56:49;;;;;;;1.70;1.60;;;;;;;-1.84;100.00;61811.63;5104890;28;20393;-79
2024/01/20 07:59:16;;;;;;;2.15;1.98;;;;;;;-1.92;100.00;61805.94;5111096;28;20339;-78
2024/01/20 08:01:43;;;;;;;2.05;1.95;;;;;;;-1.79;100.00;61816.72;5106235;28;20228;-78
2024/01/20 08:04:11;;;;;;;2.42;2.15;;;;;;;-1.65;100.00;61830.53;5105758;28;20206;-78
2024/01/20 08:06:39;;;;;;;2.78;2.33;;;;;;;-1.73;100.00;61830.38;5103365;28;20204;-78
2024/01/20 08:09:06;;;;;;;1.77;1.67;;;;;;;-1.74;100.00;61821.84;5103698;28;20200;-79
2024/01/20 08:11:33;;;;;;;3.38;1.98;;;;;;;-1.67;100.00;61834.00;5108732;28;20196;-79
2024/01/20 08:14:01;;;;;;;3.03;2.08;;;;;;;-1.66;100.00;61832.03;5103342;28;20192;-81
2024/01/20 08:16:28;;;;;;;2.15;1.95;;;;;;;-1.73;100.00;61820.38;5108803;28;20230;-78
2024/01/20 08:18:56;;;;;;;1.63;1.52;;;;;;;-1.64;100.00;61831.56;5111080;28;20267;-76
2024/01/20 08:21:23;;;;;;;1.88;1.77;;;;;;;-1.61;100.00;61835.16;5106933;28;20236;-78
2024/01/20 08:23:52;;;;;;;4.22;2.03;;;;;;;-1.62;100.00;61838.59;5105117;28;20217;-78
2024/01/20 08:26:19;;;;;;;1.63;1.52;;;;;;;-1.70;100.00;61828.44;5111930;28;20216;-78
2024/01/20 08:28:45;;;;;;;4.40;2.47;;;;;;;-1.76;100.00;61822.28;5109879;28;20200;-77
2024/01/20 08:31:12;;;;;;;1.90;1.80;;;;;;;-1.65;100.00;61833.03;5106819;28;20251;-78
2024/01/20 08:33:39;;;;;;;3.30;2.08;;;;;;;-1.75;100.00;61823.31;5108686;28;20219;-77
2024/01/20 08:36:07;;;;;;;1.55;1.38;;;;;;;-1.74;100.00;61829.34;5108613;28;20227;-78
2024/01/20 08:38:34;;;;;;;2.42;2.25;;;;;;;-1.63;100.00;61837.59;5111102;28;20196;-79
2024/01/20 08:41:09;;;;;;;2.85;1.50;;;;;;;-1.62;100.00;61834.13;5108655;28;20251;-77
2024/01/20 08:43:37;;;;;;;2.28;2.15;;;;;;;-1.71;100.00;61824.41;5113223;28;20196;-78
2024/01/20 08:46:04;;;;;;;2.20;2.00;;;;;;;-1.74;100.00;61819.34;5105101;28;20454;-78
2024/01/20 08:48:31;;;;;;;1.88;1.77;;;;;;;-1.58;100.00;61843.22;5112657;28;20207;-78
2024/01/20 08:50:58;;;;;;;2.65;2.03;;;;;;;-1.76;100.00;61819.78;5110146;28;20220;-79
2024/01/20 08:53:25;;;;;;;2.88;2.55;;;;;;;-1.57;100.00;61834.25;5108999;28;20208;-79
2024/01/20 08:55:52;;;;;;;2.55;2.17;;;;;;;-1.44;100.00;61855.03;5107155;28;20269;-76
2024/01/20 08:58:21;;;;;;;2.67;2.47;;;;;;;-1.46;100.00;61852.47;5106907;28;20210;-76
2024/01/20 09:00:49;;;;;;;2.05;1.90;;;;;;;-1.66;100.00;61830.03;5103251;28;20215;-76
2024/01/20 09:03:16;;;;;;;3.10;2.80;;;;;;;-1.55;100.00;61840.78;5111165;28;20251;-76
2024/01/20 09:05:43;;;;;;;2.78;2.47;;;;;;;-1.48;100.00;61850.44;5108191;28;20219;-76
2024/01/20 09:08:11;;;;;;;2.65;2.25;;;;;;;-1.45;100.00;61854.00;5106034;28;20200;-77
2024/01/20 09:10:38;;;;;;;2.15;1.95;;;;;;;-1.52;100.00;61844.34;5105582;28;20371;-77
2024/01/20 09:13:05;;;;;;;2.60;2.40;;;;;;;-1.50;100.00;61851.38;5105855;28;20505;-78
2024/01/20 09:15:33;;;;;;;1.58;1.48;;;;;;;-1.40;100.00;61859.13;5123444;28;20283;-77
2024/01/20 09:18:00;;;;;;;3.58;2.58;;;;;;;-1.31;100.00;61862.81;5112215;28;20192;-77
2024/01/20 09:20:27;;;;;;;2.75;2.55;;;;;;;-1.22;100.00;61877.56;5106644;28;20235;-77
2024/01/20 09:22:54;;;;;;;5.43;2.80;;;;;;;-1.22;100.00;61877.56;5111384;28;20234;-77
2024/01/20 09:25:21;;;;;;;3.55;3.15;;;;;;;-1.23;100.00;61876.53;5108149;28;20319;-76
2024/01/20 09:27:48;;;;;;;2.38;2.05;;;;;;;-1.23;100.00;61871.53;5108143;28;20204;-77
2024/01/20 09:30:15;;;;;;;2.95;2.70;;;;;;;-1.44;100.00;61847.56;5105160;28;20242;-76
2024/01/20 09:32:44;;;;;;;3.58;3.08;;;;;;;-1.35;100.00;61863.75;5105714;28;20448;-77
2024/01/20 09:35:11;;;;;;;3.50;2.63;;;;;;;-1.34;100.00;61859.75;5101359;28;20257;-76
2024/01/20 09:37:37;;;;;;;3.50;3.20;;;;;;;-1.34;100.00;61870.28;5104667;28;20262;-76
2024/01/20 09:40:05;;;;;;;2.58;2.25;;;;;;;-1.41;100.00;61858.09;5109368;28;20330;-76
2024/01/20 09:42:32;;;;;;;3.92;3.17;;;;;;;-1.30;100.00;61866.34;5104951;28;20423;-77
2024/01/20 09:44:59;;;;;;;3.72;3.28;;;;;;;-1.22;100.00;61874.53;5104589;28;20223;-76
2024/01/20 09:47:27;;;;;;;5.43;3.92;;;;;;;-1.28;100.00;61865.91;5088545;28;20382;-78
2024/01/20 09:49:55;;;;;;;4.30;3.47;;;;;;;-1.41;100.00;61858.09;5092006;28;20208;-79
2024/01/20 09:52:26;;;;;;;6.05;4.55;;;;;;;-1.30;100.00;61866.88;5107016;28;20199;-78
2024/01/20 09:55:09;;;;;;;3.65;3.28;;;;;;;-1.17;100.00;61879.16;5107543;28;20220;-77
2024/01/20 09:57:37;;;;;;;6.25;4.50;;;;;;;-1.18;100.00;61881.13;5107964;28;20206;-80
2024/01/20 10:00:04;;;;;;;3.22;3.03;;;;;;;-1.20;100.00;61876.59;5106541;28;20287;-78
2024/01/20 10:02:31;;;;;;;7.93;4.53;;;;;;;-1.11;100.00;61892.78;5105970;28;20409;-78
2024/01/20 10:05:00;;;;;;;6.43;4.70;;;;;;;-1.22;100.00;61877.56;5104670;28;20324;-81
2024/01/20 10:07:28;;;;;;;9.93;4.55;;;;;;;-1.33;100.00;61868.78;5094668;28;20199;-78
2024/01/20 10:09:54;;;;;;;5.50;4.78;;;;;;;-1.32;100.00;61864.31;5106233;28;20228;-77
2024/01/20 10:12:22;;;;;;;4.43;4.03;;;;;;;-1.36;100.00;61860.72;5100753;28;20276;-79
2024/01/20 10:14:49;;;;;;;9.13;5.10;;;;;;;-1.23;100.00;61873.53;5110364;28;20230;-78
2024/01/20 10:17:16;;;;;;;6.03;4.30;;;;;;;-1.31;100.00;61867.81;5111582;28;20279;-78
2024/01/20 10:19:43;;;;;;;6.30;5.22;;;;;;;-1.28;100.00;61868.41;5106040;28;20265;-81
2024/01/20 10:22:11;;;;;;;6.43;5.38;;;;;;;-1.47;100.00;61851.97;5098636;28;20231;-79
2024/01/20 10:24:46;;;;;;;3.15;2.90;;;;;;;-1.70;100.00;61825.94;5101441;28;20241;-78
2024/01/20 10:27:16;;;;;;;6.57;3.90;;;;;;;-1.57;100.00;61838.75;5095976;28;20196;-79
2024/01/20 10:29:43;;;;;;;8.18;5.32;;;;;;;-1.58;100.00;61838.22;5096072;28;20230;-79
2024/01/20 10:32:10;;;;;;;4.53;4.10;;;;;;;-1.49;100.00;61849.41;5095169;28;20235;-78
2024/01/20 10:34:37;;;;;;;6.25;4.68;;;;;;;-1.43;100.00;61856.06;5098898;28;20246;-80
2024/01/20 10:37:06;;;;;;;4.90;4.22;;;;;;;-1.48;100.00;61847.94;5099460;28;20208;-78
2024/01/20 10:39:34;;;;;;;6.28;4.50;;;;;;;-1.43;100.00;61856.06;5100071;28;20296;-78
2024/01/20 10:42:01;;;;;;;8.40;5.00;;;;;;;-1.42;100.00;61857.09;5093399;28;20273;-79
2024/01/20 10:44:29;;;;;;;7.68;5.82;;;;;;;-1.40;100.00;61856.63;5096267;28;20262;-79
2024/01/20 10:46:55;;;;;;;6.40;5.30;;;;;;;-1.38;100.00;61855.69;5095408;28;20200;-80
2024/01/20 10:49:23;;;;;;;5.65;4.40;;;;;;;-1.43;100.00;61858.56;5095408;28;20332;-78
2024/01/20 10:51:50;;;;;;;7.82;5.05;;;;;;;-1.43;100.00;61856.06;5095795;28;20203;-77
2024/01/20 10:54:17;;;;;;;5.70;4.38;;;;;;;-1.62;100.00;61831.09;5098068;28;20278;-77
2024/01/20 10:56:45;;;;;;;11.18;5.28;;;;;;;-1.49;100.00;61847.44;5102081;28;20226;-77
2024/01/20 10:59:13;;;;;;;9.63;6.70;;;;;;;-1.52;100.00;61843.84;5095458;28;20272;-76
2024/01/20 11:01:41;;;;;;;7.43;6.15;;;;;;;-1.45;100.00;61859.00;5091742;28;20246;-78
2024/01/20 11:04:08;;;;;;;8.00;5.70;;;;;;;-1.39;100.00;61859.63;5101512;28;20285;-76
2024/01/20 11:06:35;;;;;;;8.85;6.28;;;;;;;-1.36;100.00;61862.72;5106043;28;20242;-77
2024/01/20 11:09:02;;;;;;;10.45;5.47;;;;;;;-1.35;100.00;61866.25;5096260;28;20196;-77
2024/01/20 11:11:34;;;;;;;8.70;5.80;;;;;;;-1.30;100.00;61869.38;5103306;28;20265;-76
2024/01/20 11:14:02;;;;;;;7.30;4.95;;;;;;;-1.34;100.00;61864.75;5105072;28;20208;-78
2024/01/20 11:16:30;;;;;;;7.85;6.03;;;;;;;-1.76;100.00;61819.78;5108660;28;20203;-78
2024/01/20 11:19:06;;;;;;;11.23;6.40;;;;;;;-1.50;100.00;61848.41;5115779;28;20404;-76
2024/01/20 11:21:33;;;;;;;8.82;5.10;;;;;;;-1.69;100.00;61829.47;5103981;28;20255;-76
2024/01/20 11:24:00;;;;;;;7.95;6.22;;;;;;;-1.70;100.00;61828.44;5111681;28;20287;-77
2024/01/20 11:26:32;;;;;;;9.52;5.82;;;;;;;-1.52;100.00;61849.34;5108797;28;20241;-78